Time;durP1;ratioP1;P1;durP2;ratioP2;P2;SDS_P1;SDS_P2;PMS_P1;PMS_P2;Temp;Humidity;BMP_temperature;BMP_pressure;BME280_temperature;BME280_humidity;BME280_pressure;Samples;Min_cycle;Max_cycle;Signal;HPM_P1;HPM_P2
2023/06/02 00:02:19;;;;;;;13.80;9.38;;;12.80;72.90;;;;;;5038952;28;20029;-75
2023/06/02 00:04:45;;;;;;;13.45;9.13;;;12.80;72.70;;;;;;5041539;28;20424;-75
2023/06/02 00:07:11;;;;;;;12.40;9.35;;;12.80;72.90;;;;;;5038020;28;20037;-75
2023/06/02 00:09:41;;;;;;;13.43;9.55;;;12.70;72.70;;;;;;5042440;28;20079;-76
2023/06/02 00:12:08;;;;;;;12.52;9.57;;;12.80;72.90;;;;;;5041961;28;20041;-76
2023/06/02 00:14:34;;;;;;;16.00;8.63;;;12.90;72.70;;;;;;5042138;28;20129;-75
2023/06/02 00:17:00;;;;;;;14.90;9.93;;;12.80;72.80;;;;;;5041584;28;20033;-76
2023/06/02 00:19:30;;;;;;;13.85;9.30;;;12.80;72.40;;;;;;5042257;28;20107;-76
2023/06/02 00:22:05;;;;;;;11.98;7.82;;;12.80;72.60;;;;;;5037906;28;20037;-76
2023/06/02 00:24:32;;;;;;;11.57;7.97;;;12.80;73.00;;;;;;5044958;28;20112;-75
2023/06/02 00:26:58;;;;;;;13.57;8.85;;;12.80;73.40;;;;;;5035777;28;20049;-76
2023/06/02 00:29:23;;;;;;;12.85;8.90;;;12.80;73.50;;;;;;5024566;28;20496;-76
2023/06/02 00:31:49;;;;;;;12.00;9.05;;;12.90;73.40;;;;;;5042462;28;20041;-76
2023/06/02 00:34:15;;;;;;;14.60;9.95;;;12.90;73.20;;;;;;5036261;28;20025;-76
2023/06/02 00:36:40;;;;;;;14.13;10.77;;;12.80;73.30;;;;;;5036533;28;20037;-76
2023/06/02 00:39:07;;;;;;;13.88;9.13;;;12.90;73.10;;;;;;5037192;28;20035;-75
2023/06/02 00:41:33;;;;;;;14.85;9.05;;;12.80;73.70;;;;;;5037357;28;20047;-76
2023/06/02 00:43:59;;;;;;;14.10;9.13;;;12.80;73.60;;;;;;5034089;28;20087;-77
2023/06/02 00:46:25;;;;;;;14.38;8.77;;;12.80;73.70;;;;;;5029860;28;20033;-76
2023/06/02 00:48:51;;;;;;;12.75;8.95;;;12.80;73.70;;;;;;5038822;28;20033;-76
2023/06/02 00:51:17;;;;;;;15.43;9.10;;;12.80;73.60;;;;;;5030740;28;20037;-76
2023/06/02 00:53:44;;;;;;;14.63;9.32;;;12.80;73.60;;;;;;5044608;28;20033;-76
2023/06/02 00:56:13;;;;;;;13.13;9.35;;;12.80;73.60;;;;;;5037201;28;20381;-76
2023/06/02 00:58:41;;;;;;;16.83;8.38;;;12.80;73.40;;;;;;5030997;28;20025;-76
2023/06/02 01:01:12;;;;;;;12.73;8.40;;;12.80;73.30;;;;;;5037890;28;20044;-76
2023/06/02 01:03:43;;;;;;;13.02;8.88;;;12.80;73.40;;;;;;5041710;28;20424;-76
2023/06/02 01:06:10;;;;;;;14.80;8.98;;;12.80;73.20;;;;;;5038961;28;20045;-76
2023/06/02 01:08:38;;;;;;;12.35;9.75;;;12.70;73.20;;;;;;5034408;28;20021;-76
2023/06/02 01:11:05;;;;;;;14.35;9.00;;;12.70;73.10;;;;;;5030444;28;20547;-76
2023/06/02 01:13:31;;;;;;;14.68;9.45;;;12.70;73.10;;;;;;5035787;28;20405;-76
2023/06/02 01:15:57;;;;;;;15.35;10.10;;;12.70;72.90;;;;;;5036258;28;20029;-76
2023/06/02 01:18:25;;;;;;;15.88;10.65;;;12.70;73.00;;;;;;5033807;28;20027;-76
2023/06/02 01:20:57;;;;;;;14.80;10.68;;;12.60;73.10;;;;;;5039196;28;20032;-76
2023/06/02 01:23:33;;;;;;;17.40;11.13;;;12.70;73.20;;;;;;5043016;28;20037;-75
2023/06/02 01:26:00;;;;;;;14.38;11.05;;;12.70;73.10;;;;;;5038487;28;20033;-76
2023/06/02 01:28:27;;;;;;;14.88;11.10;;;12.60;73.00;;;;;;5035758;28;20605;-76
2023/06/02 01:31:01;;;;;;;17.80;11.88;;;12.70;72.90;;;;;;5033115;28;20040;-76
2023/06/02 01:33:35;;;;;;;15.68;12.35;;;12.60;73.10;;;;;;5043165;28;20029;-76
2023/06/02 01:36:02;;;;;;;17.48;12.07;;;12.60;72.90;;;;;;5039899;28;20021;-76
2023/06/02 01:38:29;;;;;;;19.00;13.05;;;12.60;72.90;;;;;;5034611;28;20029;-76
2023/06/02 01:40:59;;;;;;;21.15;12.63;;;12.60;72.90;;;;;;5036278;28;20044;-76
2023/06/02 01:43:26;;;;;;;16.70;11.65;;;12.60;72.70;;;;;;5036021;28;20033;-76
2023/06/02 01:45:52;;;;;;;14.48;10.77;;;12.50;72.30;;;;;;5032602;28;20055;-76
2023/06/02 01:48:17;;;;;;;20.50;11.68;;;12.50;72.30;;;;;;5033932;28;20083;-76
2023/06/02 01:50:44;;;;;;;16.23;10.65;;;12.40;72.20;;;;;;5032546;28;20036;-76
2023/06/02 01:53:09;;;;;;;15.07;9.85;;;12.40;71.60;;;;;;5041820;28;20041;-76
2023/06/02 01:55:35;;;;;;;16.45;8.95;;;12.30;71.60;;;;;;5039620;28;20029;-75
2023/06/02 01:58:02;;;;;;;17.55;9.82;;;12.40;71.60;;;;;;5039698;28;20097;-76
2023/06/02 02:00:28;;;;;;;16.92;10.18;;;12.40;71.60;;;;;;5046996;28;20128;-76
2023/06/02 02:02:54;;;;;;;17.27;10.00;;;12.20;71.60;;;;;;5046239;28;20033;-76
2023/06/02 02:05:20;;;;;;;17.58;10.15;;;12.30;71.70;;;;;;5045562;28;20473;-76
2023/06/02 02:07:46;;;;;;;17.77;9.70;;;12.20;71.60;;;;;;5042228;28;20087;-76
2023/06/02 02:10:12;;;;;;;17.40;9.60;;;12.20;71.50;;;;;;5041353;28;20017;-76
2023/06/02 02:12:38;;;;;;;15.45;10.20;;;12.20;71.70;;;;;;5040530;28;20727;-76
2023/06/02 02:15:06;;;;;;;17.08;10.60;;;12.20;71.30;;;;;;5043261;28;20033;-76
2023/06/02 02:17:36;;;;;;;16.90;10.65;;;12.10;70.90;;;;;;5042227;28;20036;-76
2023/06/02 02:20:05;;;;;;;18.05;11.20;;;12.20;71.30;;;;;;5038374;28;20140;-76
2023/06/02 02:22:32;;;;;;;17.10;11.98;;;12.10;71.20;;;;;;5039845;28;20083;-76
2023/06/02 02:24:58;;;;;;;21.40;12.02;;;12.10;71.10;;;;;;5040697;28;20017;-76
2023/06/02 02:27:24;;;;;;;21.00;12.18;;;12.10;71.20;;;;;;5033511;28;20514;-76
2023/06/02 02:29:50;;;;;;;17.52;12.15;;;12.10;71.00;;;;;;5043074;28;20037;-75
2023/06/02 02:32:16;;;;;;;16.20;12.10;;;12.10;70.90;;;;;;5039063;28;20063;-74
2023/06/02 02:34:45;;;;;;;18.55;11.15;;;12.10;71.10;;;;;;5041738;28;20021;-75
2023/06/02 02:37:12;;;;;;;18.00;10.57;;;12.00;70.80;;;;;;5038040;28;20120;-75
2023/06/02 02:39:38;;;;;;;17.20;11.25;;;12.00;70.70;;;;;;5042586;28;20029;-75
2023/06/02 02:42:04;;;;;;;16.70;11.05;;;12.00;70.60;;;;;;5034570;28;20056;-76
2023/06/02 02:44:30;;;;;;;19.15;10.55;;;12.00;70.70;;;;;;5043992;28;20361;-75
2023/06/02 02:46:58;;;;;;;19.75;10.57;;;11.90;70.30;;;;;;5039340;28;20029;-77
2023/06/02 02:49:24;;;;;;;17.63;10.02;;;11.90;70.20;;;;;;5035031;28;20025;-76
2023/06/02 02:51:49;;;;;;;15.43;9.50;;;12.00;70.10;;;;;;5038167;28;20091;-77
2023/06/02 02:54:15;;;;;;;19.95;9.32;;;12.00;69.90;;;;;;5047650;28;20044;-75
2023/06/02 02:56:41;;;;;;;18.08;9.07;;;11.90;69.60;;;;;;5043999;28;20362;-76
2023/06/02 02:59:07;;;;;;;18.60;9.30;;;11.80;69.10;;;;;;5041840;28;20033;-76
2023/06/02 03:01:33;;;;;;;20.80;9.52;;;11.90;68.80;;;;;;5034509;28;20037;-76
2023/06/02 03:03:58;;;;;;;18.02;9.50;;;11.80;69.00;;;;;;5046012;28;20252;-76
2023/06/02 03:06:31;;;;;;;15.57;9.68;;;11.80;69.10;;;;;;5038672;28;20025;-76
2023/06/02 03:08:58;;;;;;;17.27;9.57;;;11.80;69.10;;;;;;5043595;28;20025;-76
2023/06/02 03:11:24;;;;;;;15.00;10.10;;;11.80;68.70;;;;;;5044717;28;20122;-76
2023/06/02 03:13:50;;;;;;;18.10;9.52;;;11.70;68.90;;;;;;5046955;28;20033;-76
2023/06/02 03:16:16;;;;;;;19.55;10.25;;;11.70;68.80;;;;;;5035142;28;20033;-76
2023/06/02 03:18:42;;;;;;;16.73;8.32;;;11.70;68.90;;;;;;5044607;28;20017;-76
2023/06/02 03:21:07;;;;;;;15.07;10.05;;;11.60;69.20;;;;;;5039468;28;20401;-76
2023/06/02 03:23:36;;;;;;;18.92;10.77;;;11.60;68.90;;;;;;5045805;28;20041;-76
2023/06/02 03:26:02;;;;;;;18.98;9.85;;;11.60;69.30;;;;;;5039445;28;20091;-76
2023/06/02 03:28:28;;;;;;;20.13;9.73;;;11.70;69.10;;;;;;5036725;28;20108;-76
2023/06/02 03:30:54;;;;;;;15.32;9.02;;;11.80;69.00;;;;;;5039788;28;20109;-75
2023/06/02 03:33:20;;;;;;;17.58;9.27;;;11.70;69.00;;;;;;5045534;28;20017;-75
2023/06/02 03:35:45;;;;;;;15.18;8.90;;;11.70;68.90;;;;;;5040929;28;20489;-76
2023/06/02 03:38:11;;;;;;;17.00;8.98;;;11.70;69.10;;;;;;5043216;28;20028;-75
2023/06/02 03:40:37;;;;;;;17.52;8.27;;;11.80;68.90;;;;;;5046202;28;20111;-76
2023/06/02 03:43:02;;;;;;;17.20;8.35;;;11.70;69.10;;;;;;5043379;28;20037;-75
2023/06/02 03:45:28;;;;;;;16.20;8.88;;;11.80;69.40;;;;;;5040159;28;20108;-76
2023/06/02 03:47:54;;;;;;;16.27;8.77;;;11.80;69.40;;;;;;5039542;28;20167;-76
2023/06/02 03:50:19;;;;;;;19.48;8.27;;;11.80;69.50;;;;;;5043803;28;20465;-76
2023/06/02 03:52:45;;;;;;;19.75;9.48;;;11.80;69.40;;;;;;5040305;28;20117;-76
2023/06/02 03:55:11;;;;;;;18.67;8.65;;;11.80;69.80;;;;;;5038292;28;20107;-76
2023/06/02 03:57:37;;;;;;;17.65;8.80;;;11.80;69.80;;;;;;5040044;28;20029;-76
2023/06/02 04:00:04;;;;;;;15.40;7.97;;;11.80;70.00;;;;;;5036811;28;20021;-76
2023/06/02 04:02:30;;;;;;;17.30;9.30;;;11.80;70.10;;;;;;5037952;28;20556;-76
2023/06/02 04:04:56;;;;;;;18.95;9.45;;;11.80;70.00;;;;;;5037976;28;20021;-76
2023/06/02 04:07:22;;;;;;;15.57;8.57;;;11.80;70.20;;;;;;5039525;28;20025;-76
2023/06/02 04:09:48;;;;;;;16.25;9.60;;;11.90;70.00;;;;;;5034557;28;20032;-76
2023/06/02 04:12:13;;;;;;;16.33;8.90;;;11.90;69.90;;;;;;5036229;28;20540;-76
2023/06/02 04:14:39;;;;;;;17.95;9.15;;;11.90;70.10;;;;;;5039266;28;20025;-75
2023/06/02 04:17:05;;;;;;;18.58;8.65;;;11.90;69.70;;;;;;5035962;28;20048;-75
2023/06/02 04:19:31;;;;;;;23.63;9.65;;;11.80;70.00;;;;;;5035896;28;20057;-75
2023/06/02 04:21:56;;;;;;;15.75;8.55;;;11.80;70.20;;;;;;5037387;28;20060;-75
2023/06/02 04:24:22;;;;;;;18.75;8.75;;;11.90;70.20;;;;;;5032208;28;20496;-75
2023/06/02 04:26:48;;;;;;;17.75;9.93;;;12.00;70.30;;;;;;5038092;28;20483;-76
2023/06/02 04:29:13;;;;;;;18.45;8.50;;;12.00;70.20;;;;;;5044901;28;20021;-76
2023/06/02 04:31:43;;;;;;;17.40;8.00;;;12.10;70.20;;;;;;5039430;28;20032;-76
2023/06/02 04:34:12;;;;;;;14.88;8.82;;;12.10;70.50;;;;;;5032369;28;20025;-76
2023/06/02 04:36:39;;;;;;;17.55;8.55;;;12.10;70.30;;;;;;5038565;28;20129;-76
2023/06/02 04:39:08;;;;;;;15.32;8.27;;;12.10;70.50;;;;;;5043504;28;20512;-76
2023/06/02 04:41:37;;;;;;;18.40;8.10;;;12.10;70.40;;;;;;5031613;28;20495;-76
2023/06/02 04:44:05;;;;;;;16.52;8.60;;;12.10;70.20;;;;;;5033965;28;20388;-76
2023/06/02 04:46:32;;;;;;;15.43;8.00;;;12.00;69.70;;;;;;5032886;28;20111;-76
2023/06/02 04:48:57;;;;;;;18.30;7.60;;;12.00;69.80;;;;;;5038956;28;20103;-76
2023/06/02 04:51:27;;;;;;;17.70;7.72;;;12.00;70.00;;;;;;5036960;28;20470;-76
2023/06/02 04:53:53;;;;;;;20.38;9.05;;;12.00;69.20;;;;;;5038568;28;20481;-75
2023/06/02 04:56:18;;;;;;;18.60;8.50;;;11.80;69.20;;;;;;5035872;28;20067;-76
2023/06/02 04:58:44;;;;;;;15.60;8.10;;;11.70;69.20;;;;;;5039536;28;20030;-76
2023/06/02 05:01:10;;;;;;;16.80;8.45;;;11.70;69.40;;;;;;5034164;28;20037;-75
2023/06/02 05:03:35;;;;;;;19.52;9.43;;;11.70;69.30;;;;;;5041706;28;20060;-76
2023/06/02 05:06:02;;;;;;;14.32;9.38;;;11.70;69.20;;;;;;5037798;28;20029;-76
2023/06/02 05:08:28;;;;;;;16.20;9.70;;;11.80;69.40;;;;;;5043759;28;20063;-76
2023/06/02 05:10:53;;;;;;;18.55;9.20;;;11.80;68.70;;;;;;5035883;28;20098;-76
2023/06/02 05:13:19;;;;;;;16.60;8.55;;;11.70;68.90;;;;;;5043287;28;20485;-76
2023/06/02 05:15:45;;;;;;;17.50;8.38;;;11.70;69.10;;;;;;5033881;28;20033;-76
2023/06/02 05:18:14;;;;;;;16.42;8.20;;;11.70;69.10;;;;;;5038621;28;20036;-76
2023/06/02 05:20:40;;;;;;;20.88;9.70;;;11.70;69.50;;;;;;5038398;28;20136;-76
2023/06/02 05:23:06;;;;;;;18.58;8.52;;;11.70;69.40;;;;;;5040358;28;20393;-76
2023/06/02 05:25:32;;;;;;;17.38;8.45;;;11.70;69.70;;;;;;5037734;28;20026;-76
2023/06/02 05:27:57;;;;;;;18.75;8.60;;;11.80;69.40;;;;;;5034395;28;20033;-75
2023/06/02 05:30:23;;;;;;;17.83;9.10;;;11.80;69.50;;;;;;5042095;28;20113;-75
2023/06/02 05:32:49;;;;;;;19.15;9.80;;;11.70;69.60;;;;;;5044352;28;20021;-76
2023/06/02 05:35:14;;;;;;;22.75;9.63;;;11.60;69.90;;;;;;5044101;28;20234;-76
2023/06/02 05:37:41;;;;;;;16.40;7.95;;;11.70;70.00;;;;;;5042032;28;20037;-76
2023/06/02 05:40:07;;;;;;;20.27;9.80;;;11.70;70.10;;;;;;5048711;28;20461;-76
2023/06/02 05:42:33;;;;;;;19.73;10.05;;;11.70;70.00;;;;;;5041163;28;20044;-76
2023/06/02 05:44:58;;;;;;;19.55;10.82;;;11.70;69.50;;;;;;5044728;28;20068;-76
2023/06/02 05:47:26;;;;;;;19.40;10.82;;;11.70;70.10;;;;;;5039590;28;20044;-75
2023/06/02 05:49:51;;;;;;;18.80;10.18;;;11.80;70.10;;;;;;5038788;28;20029;-77
2023/06/02 05:52:17;;;;;;;18.05;9.98;;;11.90;70.10;;;;;;5041883;28;20128;-77
2023/06/02 05:54:42;;;;;;;19.30;10.90;;;11.70;70.00;;;;;;5043971;28;20409;-76
2023/06/02 05:57:08;;;;;;;22.13;9.50;;;11.80;70.00;;;;;;5038306;28;20553;-77
2023/06/02 05:59:34;;;;;;;19.25;10.35;;;12.10;69.80;;;;;;5040180;28;20021;-76
2023/06/02 06:01:59;;;;;;;19.70;8.77;;;12.00;68.90;;;;;;5033749;28;20096;-76
2023/06/02 06:04:25;;;;;;;18.42;8.98;;;12.00;69.40;;;;;;5041186;28;20025;-76
2023/06/02 06:06:51;;;;;;;18.25;8.63;;;11.80;69.10;;;;;;5041814;28;20083;-77
2023/06/02 06:09:16;;;;;;;18.33;9.00;;;11.90;69.60;;;;;;5036770;28;20806;-76
2023/06/02 06:11:43;;;;;;;19.15;8.63;;;11.80;69.00;;;;;;5040948;28;20037;-77
2023/06/02 06:14:08;;;;;;;16.23;9.65;;;11.80;69.40;;;;;;5044483;28;20029;-76
2023/06/02 06:16:36;;;;;;;14.98;9.30;;;11.80;69.30;;;;;;5041629;28;20405;-76
2023/06/02 06:19:02;;;;;;;15.32;9.85;;;11.80;70.10;;;;;;5044399;28;20108;-76
2023/06/02 06:21:28;;;;;;;18.40;9.60;;;11.90;69.40;;;;;;5045762;28;20071;-77
2023/06/02 06:23:54;;;;;;;16.23;9.32;;;11.80;69.50;;;;;;5038780;28;20048;-76
2023/06/02 06:26:20;;;;;;;18.42;9.35;;;11.90;69.80;;;;;;5045324;28;20032;-77
2023/06/02 06:28:46;;;;;;;17.33;9.13;;;12.00;69.30;;;;;;5045893;28;20059;-76
2023/06/02 06:31:11;;;;;;;18.05;9.02;;;12.00;69.20;;;;;;5043535;28;20036;-76
2023/06/02 06:33:37;;;;;;;18.10;9.30;;;12.00;69.40;;;;;;5044140;28;20090;-77
2023/06/02 06:36:03;;;;;;;16.60;8.65;;;12.00;69.40;;;;;;5045191;28;20039;-77
2023/06/02 06:38:28;;;;;;;16.55;8.90;;;12.10;69.30;;;;;;5045374;28;20370;-77
2023/06/02 06:40:54;;;;;;;17.55;8.80;;;12.20;68.80;;;;;;5043157;28;20591;-77
2023/06/02 06:43:20;;;;;;;14.23;7.93;;;12.10;69.00;;;;;;5033688;28;20030;-76
2023/06/02 06:45:45;;;;;;;22.48;8.95;;;12.10;68.30;;;;;;5043678;28;20058;-76
2023/06/02 06:48:11;;;;;;;16.90;7.05;;;12.20;68.90;;;;;;5046639;28;20035;-76
2023/06/02 06:50:37;;;;;;;13.85;6.90;;;12.30;67.60;;;;;;5042111;28;20063;-76
2023/06/02 06:53:05;;;;;;;14.98;7.00;;;12.40;67.80;;;;;;5037484;28;20095;-76
2023/06/02 06:55:31;;;;;;;14.30;6.75;;;12.40;67.60;;;;;;5047102;28;20096;-76
2023/06/02 06:57:57;;;;;;;15.82;7.70;;;12.30;67.70;;;;;;5042508;28;20129;-73
2023/06/02 07:00:22;;;;;;;16.00;6.25;;;12.20;67.50;;;;;;5040697;28;20029;-71
2023/06/02 07:02:48;;;;;;;14.90;7.35;;;12.30;67.50;;;;;;5036673;28;20045;-71
2023/06/02 07:05:18;;;;;;;16.40;6.45;;;12.30;67.50;;;;;;5039678;28;20458;-72
2023/06/02 07:07:45;;;;;;;20.08;7.28;;;12.20;67.70;;;;;;5035194;28;20041;-72
2023/06/02 07:10:13;;;;;;;13.57;6.53;;;12.20;66.80;;;;;;5034389;28;20420;-72
2023/06/02 07:12:40;;;;;;;15.02;6.70;;;12.10;67.50;;;;;;5040084;28;20053;-71
2023/06/02 07:15:06;;;;;;;15.55;6.68;;;12.20;67.20;;;;;;5034930;28;20292;-72
2023/06/02 07:17:32;;;;;;;13.23;6.93;;;12.20;66.90;;;;;;5042995;28;20180;-72
2023/06/02 07:19:57;;;;;;;13.15;7.30;;;12.30;66.60;;;;;;5041753;28;20116;-73
2023/06/02 07:22:23;;;;;;;16.65;7.93;;;12.30;66.70;;;;;;5045074;28;20037;-73
2023/06/02 07:24:49;;;;;;;12.82;6.47;;;12.30;66.50;;;;;;5041647;28;20075;-72
2023/06/02 07:27:15;;;;;;;14.32;7.57;;;12.30;67.60;;;;;;5040506;28;20440;-72
2023/06/02 07:29:41;;;;;;;15.65;7.03;;;12.60;66.20;;;;;;5039377;28;20033;-72
2023/06/02 07:32:08;;;;;;;14.57;7.40;;;12.50;66.00;;;;;;5043985;28;20033;-75
2023/06/02 07:34:34;;;;;;;13.65;6.70;;;12.60;66.40;;;;;;5043452;28;20067;-71
2023/06/02 07:37:02;;;;;;;17.88;6.72;;;12.90;66.00;;;;;;5045832;28;20037;-72
2023/06/02 07:39:28;;;;;;;15.88;6.50;;;12.80;65.30;;;;;;5032428;28;20018;-72
2023/06/02 07:41:54;;;;;;;12.93;6.18;;;12.80;65.30;;;;;;5032907;28;20459;-72
2023/06/02 07:44:20;;;;;;;17.45;6.90;;;12.90;64.20;;;;;;5036702;28;20092;-74
2023/06/02 07:46:46;;;;;;;13.73;6.88;;;13.20;64.70;;;;;;5037572;28;20033;-74
2023/06/02 07:49:13;;;;;;;12.52;6.53;;;13.50;63.40;;;;;;5038817;28;20128;-72
2023/06/02 07:51:39;;;;;;;13.90;6.10;;;13.10;63.30;;;;;;5043285;28;20036;-72
2023/06/02 07:54:05;;;;;;;15.40;7.05;;;13.10;62.70;;;;;;5033563;28;20078;-72
2023/06/02 07:56:31;;;;;;;19.20;9.40;;;12.70;63.70;;;;;;5043159;28;20033;-72
2023/06/02 07:58:57;;;;;;;15.25;6.97;;;12.90;64.10;;;;;;5041670;28;20489;-72
2023/06/02 08:01:22;;;;;;;11.55;6.90;;;13.00;63.30;;;;;;5037129;28;20067;-72
2023/06/02 08:03:48;;;;;;;15.30;7.03;;;13.00;63.10;;;;;;5039091;28;20045;-72
2023/06/02 08:06:15;;;;;;;14.48;5.97;;;13.20;62.70;;;;;;5035532;28;20032;-72
2023/06/02 08:08:41;;;;;;;9.90;6.22;;;13.20;63.30;;;;;;5041591;28;20024;-72
2023/06/02 08:11:07;;;;;;;13.07;5.80;;;13.40;61.80;;;;;;5038518;28;20327;-72
2023/06/02 08:13:32;;;;;;;13.88;5.72;;;13.50;62.10;;;;;;5042118;28;20446;-73
2023/06/02 08:15:59;;;;;;;23.70;6.00;;;13.60;61.10;;;;;;5037392;28;20458;-72
2023/06/02 08:18:25;;;;;;;13.50;5.47;;;13.60;61.70;;;;;;5041180;28;20075;-73
2023/06/02 08:20:51;;;;;;;14.05;5.15;;;13.60;62.40;;;;;;5038690;28;20052;-72
2023/06/02 08:23:17;;;;;;;13.63;5.75;;;14.00;61.50;;;;;;5038712;28;20037;-73
2023/06/02 08:25:44;;;;;;;11.57;5.63;;;13.80;61.50;;;;;;5036652;28;20040;-75
2023/06/02 08:28:11;;;;;;;14.25;6.63;;;13.70;61.80;;;;;;5039652;28;20041;-73
2023/06/02 08:30:37;;;;;;;11.32;5.78;;;13.80;62.00;;;;;;5040086;28;20032;-73
2023/06/02 08:33:09;;;;;;;19.60;5.45;;;13.70;62.10;;;;;;5036937;28;20406;-75
2023/06/02 08:35:38;;;;;;;13.27;5.20;;;13.70;61.20;;;;;;5034905;28;20013;-75
2023/06/02 08:38:07;;;;;;;12.00;5.15;;;13.90;61.00;;;;;;5038165;28;20041;-74
2023/06/02 08:40:41;;;;;;;16.38;6.05;;;13.80;61.30;;;;;;5039509;28;20572;-73
2023/06/02 08:43:09;;;;;;;14.02;5.72;;;13.80;60.00;;;;;;5041253;28;20075;-74
2023/06/02 08:45:40;;;;;;;15.18;6.00;;;13.60;60.80;;;;;;5042092;28;20030;-74
2023/06/02 08:48:07;;;;;;;16.52;6.53;;;13.60;61.20;;;;;;5042226;28;20053;-74
2023/06/02 08:50:38;;;;;;;16.90;6.88;;;13.60;61.50;;;;;;5040049;28;20112;-77
2023/06/02 08:53:06;;;;;;;18.08;6.80;;;13.70;60.50;;;;;;5043172;28;20183;-76
2023/06/02 08:55:35;;;;;;;12.85;7.03;;;14.00;60.40;;;;;;5041621;28;20025;-73
2023/06/02 08:58:01;;;;;;;15.55;6.85;;;14.10;59.40;;;;;;5030381;28;20029;-76
2023/06/02 09:00:27;;;;;;;17.02;6.97;;;14.40;59.00;;;;;;5032888;28;20305;-75
2023/06/02 09:02:54;;;;;;;11.13;5.35;;;14.30;59.40;;;;;;5033619;28;20756;-76
2023/06/02 09:05:19;;;;;;;16.00;7.32;;;14.20;58.40;;;;;;5029074;28;20478;-74
2023/06/02 09:07:46;;;;;;;12.32;5.97;;;14.20;58.20;;;;;;5038822;28;20086;-75
2023/06/02 09:10:32;;;;;;;14.25;6.90;;;14.30;58.60;;;;;;5036716;28;20052;-74
2023/06/02 09:12:58;;;;;;;14.63;7.30;;;14.40;59.20;;;;;;5030584;28;20049;-77
2023/06/02 09:15:24;;;;;;;15.40;6.90;;;14.60;58.20;;;;;;5031630;28;20086;-74
2023/06/02 09:17:51;;;;;;;15.85;7.15;;;14.60;59.30;;;;;;5034238;28;20030;-74
2023/06/02 09:20:16;;;;;;;16.85;6.13;;;15.50;57.40;;;;;;5031822;28;20025;-73
2023/06/02 09:22:55;;;;;;;13.80;6.40;;;15.90;55.60;;;;;;5031051;28;20025;-75
2023/06/02 09:25:25;;;;;;;12.73;5.93;;;16.20;54.80;;;;;;5038356;28;20021;-75
2023/06/02 09:27:57;;;;;;;15.18;6.40;;;14.90;56.50;;;;;;5038050;28;20098;-75
2023/06/02 09:30:23;;;;;;;15.40;6.78;;;15.20;56.70;;;;;;5032794;28;20025;-74
2023/06/02 09:32:56;;;;;;;13.80;6.00;;;15.40;56.00;;;;;;5036242;28;20037;-72
2023/06/02 09:35:42;;;;;;;15.65;5.57;;;15.60;55.80;;;;;;5034982;28;20778;-73
2023/06/02 09:38:10;;;;;;;15.32;6.35;;;15.30;56.20;;;;;;5027128;28;20041;-71
2023/06/02 09:40:37;;;;;;;14.52;6.18;;;15.20;55.70;;;;;;5040285;28;20112;-73
2023/06/02 09:43:05;;;;;;;14.07;6.30;;;15.40;55.90;;;;;;5038054;28;20040;-73
2023/06/02 09:45:58;;;;;;;12.20;5.90;;;15.10;56.40;;;;;;5034906;28;20112;-76
2023/06/02 09:48:24;;;;;;;12.25;5.70;;;15.40;56.10;;;;;;5034960;28;20149;-73
2023/06/02 09:50:50;;;;;;;12.48;6.05;;;15.70;54.60;;;;;;5043185;28;20138;-73
2023/06/02 09:53:19;;;;;;;14.75;6.20;;;15.00;55.80;;;;;;5040939;28;20123;-76
2023/06/02 09:55:48;;;;;;;13.85;6.10;;;15.30;56.80;;;;;;5040059;28;20755;-73
2023/06/02 09:58:14;;;;;;;13.95;6.80;;;15.90;55.70;;;;;;5037780;28;20116;-73
2023/06/02 10:00:41;;;;;;;13.30;6.22;;;16.40;54.80;;;;;;5043208;28;20039;-73
2023/06/02 10:03:07;;;;;;;14.27;6.00;;;16.50;52.20;;;;;;5042757;28;20555;-72
2023/06/02 10:05:34;;;;;;;12.82;5.85;;;16.40;53.50;;;;;;5039345;28;20028;-73
2023/06/02 10:08:15;;;;;;;14.95;5.95;;;16.50;52.50;;;;;;5037669;28;20051;-74
2023/06/02 10:10:47;;;;;;;11.00;5.80;;;16.10;53.30;;;;;;5043455;28;20037;-74
2023/06/02 10:13:18;;;;;;;14.85;5.90;;;16.60;52.80;;;;;;5042302;28;20389;-75
2023/06/02 10:15:53;;;;;;;13.07;5.63;;;16.70;53.10;;;;;;5040942;28;20048;-73
2023/06/02 10:18:39;;;;;;;16.33;6.25;;;16.50;52.50;;;;;;5027641;28;20081;-73
2023/06/02 10:21:49;;;;;;;14.82;5.28;;;16.40;53.30;;;;;;5015562;28;20375;-72
2023/06/02 10:24:36;;;;;;;13.73;5.82;;;16.20;53.50;;;;;;5037656;28;20033;-74
2023/06/02 10:27:11;;;;;;;17.58;6.28;;;16.00;53.30;;;;;;5035359;28;20033;-75
2023/06/02 10:29:38;;;;;;;15.85;6.95;;;15.90;53.90;;;;;;5047061;28;20059;-74
2023/06/02 10:32:43;;;;;;;15.20;6.60;;;16.50;52.50;;;;;;5017753;28;20813;-75
2023/06/02 10:35:09;;;;;;;13.93;6.10;;;16.10;53.20;;;;;;5018390;28;20168;-74
2023/06/02 10:37:37;;;;;;;11.95;5.80;;;16.40;53.10;;;;;;5013342;28;20030;-73
2023/06/02 10:40:04;;;;;;;12.57;5.72;;;16.10;53.50;;;;;;5013673;28;20037;-74
2023/06/02 10:42:31;;;;;;;14.98;6.50;;;15.90;55.40;;;;;;5009273;28;20413;-74
2023/06/02 10:45:20;;;;;;;15.00;6.28;;;16.00;53.80;;;;;;5012719;28;20022;-71
2023/06/02 10:47:46;;;;;;;17.40;6.78;;;16.40;54.30;;;;;;5026752;28;20506;-75
2023/06/02 10:50:21;;;;;;;12.98;6.10;;;16.70;51.90;;;;;;5008205;28;20569;-71
2023/06/02 10:52:59;;;;;;;;;;;16.70;53.10;;;;;;5011140;28;20060;-72
2023/06/02 10:55:30;;;;;;;12.10;6.55;;;17.10;51.20;;;;;;5008136;28;19913;-74
2023/06/02 10:58:03;;;;;;;15.13;6.78;;;16.80;52.20;;;;;;5011213;28;20037;-74
2023/06/02 11:00:32;;;;;;;16.83;7.28;;;17.00;52.20;;;;;;5010652;28;20038;-75
2023/06/02 11:03:00;;;;;;;13.57;6.57;;;17.20;52.00;;;;;;5006738;28;20096;-75
2023/06/02 11:05:27;;;;;;;16.02;6.43;;;17.30;51.20;;;;;;5008526;28;20060;-75
2023/06/02 11:08:15;;;;;;;15.63;7.00;;;17.30;52.70;;;;;;5010345;28;20129;-74
2023/06/02 11:10:42;;;;;;;14.60;6.53;;;17.30;52.10;;;;;;5009533;28;20030;-74
2023/06/02 11:13:09;;;;;;;16.02;7.15;;;17.60;52.60;;;;;;5009316;28;20085;-74
2023/06/02 11:15:35;;;;;;;14.55;7.32;;;17.10;51.90;;;;;;5013921;28;20524;-73
2023/06/02 11:18:21;;;;;;;19.98;7.50;;;16.80;53.00;;;;;;5008292;28;20884;-73
2023/06/02 11:20:51;;;;;;;15.35;6.68;;;17.20;53.40;;;;;;5017648;28;20034;-73
2023/06/02 11:23:20;;;;;;;14.25;6.97;;;17.10;53.00;;;;;;5019978;28;20032;-79
2023/06/02 11:26:02;;;;;;;20.77;6.85;;;17.60;52.20;;;;;;5025068;28;20440;-74
2023/06/02 11:28:29;;;;;;;13.55;6.57;;;17.60;52.60;;;;;;5024494;28;20038;-74
2023/06/02 11:31:09;;;;;;;13.70;6.55;;;17.20;51.30;;;;;;5019362;28;20030;-73
2023/06/02 11:33:37;;;;;;;17.77;8.35;;;17.30;52.50;;;;;;5013330;28;20034;-73
2023/06/02 11:36:08;;;;;;;16.92;6.80;;;17.10;52.20;;;;;;5021777;28;20168;-73
2023/06/02 11:38:35;;;;;;;15.00;6.78;;;17.10;53.20;;;;;;5023731;28;20065;-74
2023/06/02 11:41:15;;;;;;;14.43;7.28;;;17.10;52.30;;;;;;5020027;28;20057;-74
2023/06/02 11:43:43;;;;;;;15.40;6.72;;;17.40;50.80;;;;;;5015211;28;20625;-74
2023/06/02 11:46:17;;;;;;;16.13;7.28;;;17.30;51.70;;;;;;5016415;28;20038;-74
2023/06/02 11:48:46;;;;;;;15.43;7.40;;;17.30;51.10;;;;;;5019054;28;20080;-73
2023/06/02 11:51:13;;;;;;;16.48;7.30;;;17.40;51.60;;;;;;5017815;28;20044;-73
2023/06/02 11:53:45;;;;;;;16.33;8.32;;;17.50;52.00;;;;;;5019541;28;20033;-73
2023/06/02 11:56:14;;;;;;;17.30;7.95;;;17.20;51.30;;;;;;5024195;28;20033;-73
2023/06/02 11:58:44;;;;;;;19.92;8.80;;;16.90;53.00;;;;;;5014410;28;20799;-76
2023/06/02 12:01:18;;;;;;;16.98;8.05;;;17.20;51.70;;;;;;5015963;28;20435;-75
2023/06/02 12:04:03;;;;;;;17.20;8.27;;;17.60;52.70;;;;;;5014720;28;20462;-75
2023/06/02 12:06:30;;;;;;;17.23;7.88;;;17.40;50.60;;;;;;5010093;28;20049;-74
2023/06/02 12:08:56;;;;;;;19.40;8.18;;;17.40;51.70;;;;;;5018217;28;20101;-74
2023/06/02 12:11:23;;;;;;;18.65;7.65;;;17.60;51.70;;;;;;5017177;28;20149;-75
2023/06/02 12:14:15;;;;;;;15.13;7.07;;;17.60;50.10;;;;;;5012422;28;20580;-75
2023/06/02 12:16:43;;;;;;;16.85;6.93;;;17.40;51.60;;;;;;5013440;28;20042;-74
2023/06/02 12:19:16;;;;;;;14.13;7.45;;;17.70;50.50;;;;;;5018205;28;20120;-75
2023/06/02 12:21:43;;;;;;;17.38;8.63;;;17.60;51.40;;;;;;5017884;28;20052;-75
2023/06/02 12:24:10;;;;;;;18.58;8.15;;;17.60;49.80;;;;;;5018814;28;20084;-74
2023/06/02 12:26:44;;;;;;;14.05;7.82;;;17.50;50.30;;;;;;5016163;28;20479;-75
2023/06/02 12:29:10;;;;;;;17.70;8.32;;;17.70;50.20;;;;;;5021004;28;20032;-74
2023/06/02 12:31:37;;;;;;;19.23;9.68;;;18.00;50.70;;;;;;5026695;28;20037;-74
2023/06/02 12:34:06;;;;;;;18.88;9.32;;;18.10;50.50;;;;;;5039938;28;20300;-74
2023/06/02 12:36:32;;;;;;;18.75;8.48;;;17.90;50.40;;;;;;5044190;28;20032;-74
2023/06/02 12:39:00;;;;;;;19.10;8.00;;;17.80;50.40;;;;;;5036975;28;20033;-75
2023/06/02 12:41:26;;;;;;;18.95;8.50;;;18.10;50.60;;;;;;5040278;28;20041;-74